Time;durP1;ratioP1;P1;durP2;ratioP2;P2;SDS_P1;SDS_P2;PMS_P1;PMS_P2;Temp;Humidity;BMP_temperature;BMP_pressure;BME280_temperature;BME280_humidity;BME280_pressure;Samples;Min_cycle;Max_cycle;Signal;HPM_P1;HPM_P2
2021/04/10 00:02:18;;;;;;;6.27;5.57;;;12.20;70.10;;;;;;5042440;28;20473;-44
2021/04/10 00:04:45;;;;;;;10.17;6.77;;;12.20;70.50;;;;;;5046173;28;20860;-44
2021/04/10 00:07:13;;;;;;;8.20;6.10;;;12.30;71.20;;;;;;5043115;28;20452;-43
2021/04/10 00:09:40;;;;;;;9.70;6.00;;;12.30;70.80;;;;;;5042239;28;20785;-42
2021/04/10 00:12:07;;;;;;;9.97;6.13;;;12.20;71.00;;;;;;5056083;28;20463;-43
2021/04/10 00:14:34;;;;;;;7.37;5.73;;;12.20;71.60;;;;;;5044054;28;20467;-43
2021/04/10 00:17:01;;;;;;;6.07;5.47;;;12.10;71.70;;;;;;5037111;28;20528;-43
2021/04/10 00:19:27;;;;;;;7.60;5.77;;;12.10;71.90;;;;;;5046074;28;20719;-42
2021/04/10 00:21:53;;;;;;;6.10;4.87;;;12.10;72.00;;;;;;5039959;28;20462;-42
2021/04/10 00:24:20;;;;;;;5.97;5.30;;;12.10;72.40;;;;;;5042775;28;20485;-45
2021/04/10 00:26:46;;;;;;;8.03;6.10;;;12.20;72.30;;;;;;5040363;28;20982;-44
2021/04/10 00:29:12;;;;;;;7.03;5.33;;;12.20;72.10;;;;;;5039095;28;20482;-44
2021/04/10 00:31:39;;;;;;;19.87;7.50;;;12.10;72.20;;;;;;5037593;28;20467;-44
2021/04/10 00:34:05;;;;;;;6.90;6.00;;;12.10;71.90;;;;;;5038083;28;20563;-45
2021/04/10 00:36:31;;;;;;;7.20;6.03;;;12.10;72.00;;;;;;5044060;28;20494;-43
2021/04/10 00:38:57;;;;;;;6.57;5.20;;;12.10;71.90;;;;;;5041470;28;20530;-43
2021/04/10 00:41:24;;;;;;;8.77;6.20;;;12.00;72.10;;;;;;5042255;28;20489;-43
2021/04/10 00:43:50;;;;;;;6.40;5.63;;;12.00;72.30;;;;;;5039985;28;20456;-43
2021/04/10 00:46:16;;;;;;;7.23;5.70;;;12.00;72.60;;;;;;5043337;28;20455;-43
2021/04/10 00:48:42;;;;;;;7.73;6.47;;;12.10;72.60;;;;;;5044639;28;20462;-42
2021/04/10 00:51:09;;;;;;;9.77;6.00;;;12.10;72.60;;;;;;5041652;28;20815;-45
2021/04/10 00:53:36;;;;;;;9.07;6.97;;;12.00;73.00;;;;;;5042834;28;20465;-44
2021/04/10 00:56:05;;;;;;;7.80;6.57;;;12.00;73.80;;;;;;5040846;28;20491;-44
2021/04/10 00:58:33;;;;;;;9.53;5.80;;;12.10;75.50;;;;;;5052864;28;20533;-44
2021/04/10 01:01:01;;;;;;;8.70;6.50;;;12.00;75.40;;;;;;5040873;28;20473;-44
2021/04/10 01:03:27;;;;;;;9.37;7.43;;;12.00;75.90;;;;;;5040046;28;20512;-44
2021/04/10 01:05:53;;;;;;;12.83;7.20;;;11.90;77.00;;;;;;5036950;28;21017;-44
2021/04/10 01:08:19;;;;;;;8.20;6.37;;;11.90;77.70;;;;;;5044598;28;20477;-45
2021/04/10 01:10:46;;;;;;;7.93;6.43;;;11.90;78.20;;;;;;5041451;28;20462;-44
2021/04/10 01:13:21;;;;;;;10.23;7.70;;;11.80;78.70;;;;;;5053716;28;20467;-43
2021/04/10 01:16:12;;;;;;;8.97;6.33;;;11.80;78.70;;;;;;5038757;28;20663;-44
2021/04/10 01:18:58;;;;;;;14.03;10.30;;;11.70;78.80;;;;;;5041517;28;20463;-44
2021/04/10 01:22:05;;;;;;;7.97;7.13;;;11.60;79.00;;;;;;5042109;28;20546;-44
2021/04/10 01:24:46;;;;;;;8.50;7.17;;;11.60;79.20;;;;;;5026000;28;20451;-45
2021/04/10 01:27:46;;;;;;;8.27;6.50;;;11.50;79.70;;;;;;5042690;28;20458;-45
2021/04/10 01:30:15;;;;;;;10.27;7.00;;;11.50;79.90;;;;;;5041795;28;20481;-44
2021/04/10 01:33:16;;;;;;;8.00;7.20;;;11.50;80.10;;;;;;5041652;28;20462;-45
2021/04/10 01:35:56;;;;;;;9.37;8.47;;;11.40;80.30;;;;;;5017628;28;20485;-44
2021/04/10 01:38:27;;;;;;;12.30;10.20;;;11.40;80.50;;;;;;5038527;28;20516;-44
2021/04/10 01:40:59;;;;;;;13.77;8.57;;;11.40;80.70;;;;;;5038972;28;20461;-44
2021/04/10 01:43:27;;;;;;;15.03;10.70;;;11.30;81.00;;;;;;5041329;28;20561;-45
2021/04/10 01:45:58;;;;;;;15.17;9.57;;;11.30;81.20;;;;;;5041427;28;20454;-44
2021/04/10 01:48:27;;;;;;;11.13;8.53;;;11.30;81.30;;;;;;5042197;28;20471;-44
2021/04/10 01:50:55;;;;;;;12.50;9.10;;;11.30;81.40;;;;;;5036263;28;20476;-44
2021/04/10 01:53:22;;;;;;;12.37;9.47;;;11.30;81.80;;;;;;5043386;28;20455;-44
2021/04/10 01:55:50;;;;;;;10.27;8.33;;;11.30;81.90;;;;;;5040616;28;21963;-44
2021/04/10 01:58:18;;;;;;;12.57;9.20;;;11.30;82.10;;;;;;5039012;28;20901;-44
2021/04/10 02:00:46;;;;;;;9.13;7.30;;;11.30;82.20;;;;;;5041813;28;20543;-44
2021/04/10 02:03:16;;;;;;;9.50;8.50;;;11.20;82.30;;;;;;5038883;28;20463;-44
2021/04/10 02:05:44;;;;;;;11.13;8.13;;;11.30;82.50;;;;;;5037925;28;20466;-44
2021/04/10 02:08:13;;;;;;;10.90;9.10;;;11.30;82.60;;;;;;5052141;28;20453;-44
2021/04/10 02:10:40;;;;;;;11.43;9.73;;;11.30;82.60;;;;;;5042908;28;20451;-43
2021/04/10 02:13:08;;;;;;;13.07;8.73;;;11.30;82.70;;;;;;5037226;28;20454;-46
2021/04/10 02:15:34;;;;;;;9.90;8.37;;;11.20;82.80;;;;;;5040650;28;20447;-46
2021/04/10 02:18:00;;;;;;;10.77;9.57;;;11.20;82.90;;;;;;5044250;28;20478;-46
2021/04/10 02:20:27;;;;;;;9.50;8.47;;;11.20;83.00;;;;;;5041276;28;20465;-45
2021/04/10 02:22:56;;;;;;;12.63;9.10;;;11.20;83.10;;;;;;5041365;28;20470;-46
2021/04/10 02:25:28;;;;;;;10.10;8.50;;;11.20;83.10;;;;;;5041968;28;20469;-46
2021/04/10 02:27:56;;;;;;;12.37;9.90;;;11.20;83.20;;;;;;5039152;28;20502;-46
2021/04/10 02:30:23;;;;;;;12.90;9.77;;;11.20;83.30;;;;;;5047801;28;20450;-46
2021/04/10 02:32:56;;;;;;;12.00;9.50;;;11.20;83.30;;;;;;5043049;28;20458;-46
2021/04/10 02:35:37;;;;;;;10.20;9.20;;;11.20;83.40;;;;;;5044483;28;20911;-46
2021/04/10 02:38:06;;;;;;;10.63;9.23;;;11.20;83.50;;;;;;5042299;28;20442;-46
2021/04/10 02:40:36;;;;;;;12.93;9.20;;;11.20;83.50;;;;;;5039848;28;20455;-46
2021/04/10 02:43:06;;;;;;;11.30;9.40;;;11.20;83.60;;;;;;5036453;28;20614;-46
2021/04/10 02:45:34;;;;;;;14.70;9.50;;;11.20;83.80;;;;;;5044417;28;20435;-46
2021/04/10 02:48:06;;;;;;;10.47;8.50;;;11.20;83.90;;;;;;5044326;28;20455;-46
2021/04/10 02:50:35;;;;;;;12.53;9.53;;;11.20;83.90;;;;;;5037544;28;20539;-46
2021/04/10 02:53:04;;;;;;;10.97;8.50;;;11.20;83.90;;;;;;5039798;28;20986;-46
2021/04/10 02:55:39;;;;;;;17.03;8.80;;;11.20;84.00;;;;;;5040452;28;20606;-45
2021/04/10 02:58:10;;;;;;;16.70;10.13;;;11.20;84.00;;;;;;5042372;28;20458;-45
2021/04/10 03:00:39;;;;;;;11.40;7.47;;;11.20;84.10;;;;;;5041773;28;20883;-46
2021/04/10 03:03:06;;;;;;;10.10;8.43;;;11.20;84.10;;;;;;5041332;28;20462;-46
2021/04/10 03:05:33;;;;;;;10.93;7.93;;;11.20;84.20;;;;;;5048323;28;20458;-46
2021/04/10 03:08:00;;;;;;;12.60;9.40;;;11.20;84.40;;;;;;5047875;28;20472;-46
2021/04/10 03:10:27;;;;;;;12.00;9.73;;;11.10;84.40;;;;;;5041155;28;20538;-46
2021/04/10 03:12:55;;;;;;;10.97;9.00;;;11.20;84.60;;;;;;5042936;28;20466;-46
2021/04/10 03:15:22;;;;;;;10.90;8.90;;;11.20;84.60;;;;;;5038872;28;20463;-46
2021/04/10 03:17:52;;;;;;;13.03;8.60;;;11.10;84.60;;;;;;5043183;28;20494;-46
2021/04/10 03:20:21;;;;;;;10.67;8.93;;;11.10;84.80;;;;;;5044449;28;20451;-45
2021/04/10 03:22:49;;;;;;;11.80;9.43;;;11.10;85.00;;;;;;5041762;28;20466;-46
2021/04/10 03:25:17;;;;;;;11.57;8.57;;;11.10;85.00;;;;;;5040444;28;20463;-46
2021/04/10 03:27:44;;;;;;;13.60;9.07;;;11.10;85.10;;;;;;5041551;28;20829;-46
2021/04/10 03:30:12;;;;;;;13.30;9.47;;;11.10;85.10;;;;;;5044472;28;21204;-46
2021/04/10 03:32:40;;;;;;;11.50;9.40;;;11.10;85.30;;;;;;5056475;28;20466;-46
2021/04/10 03:35:08;;;;;;;11.10;9.93;;;11.10;85.40;;;;;;5040257;28;20829;-46
2021/04/10 03:37:34;;;;;;;10.93;8.27;;;11.10;85.30;;;;;;5045722;28;20486;-46
2021/04/10 03:40:01;;;;;;;11.13;10.00;;;11.10;85.40;;;;;;5039468;28;20455;-46
2021/04/10 03:42:42;;;;;;;10.70;9.70;;;11.20;85.40;;;;;;5042656;28;20467;-46
2021/04/10 03:45:20;;;;;;;10.60;9.50;;;11.20;85.40;;;;;;5038352;28;20458;-46
2021/04/10 03:47:54;;;;;;;12.43;9.63;;;11.10;85.60;;;;;;5041047;28;20467;-46
2021/04/10 03:50:23;;;;;;;11.00;9.27;;;11.20;85.60;;;;;;5040888;28;20879;-46
2021/04/10 03:52:50;;;;;;;13.07;9.70;;;11.20;85.60;;;;;;5041789;28;21021;-46
2021/04/10 03:55:17;;;;;;;10.97;9.20;;;11.20;85.60;;;;;;5038623;28;20468;-45
2021/04/10 03:57:44;;;;;;;12.23;8.80;;;11.10;85.60;;;;;;5044261;28;20509;-46
2021/04/10 04:00:10;;;;;;;11.27;9.60;;;11.10;85.70;;;;;;5041106;28;20457;-46
2021/04/10 04:02:38;;;;;;;11.47;9.30;;;11.20;85.70;;;;;;5054490;28;20459;-46
2021/04/10 04:05:05;;;;;;;13.13;8.10;;;11.20;85.70;;;;;;5042518;28;20984;-46
2021/04/10 04:07:32;;;;;;;9.60;8.60;;;11.20;85.60;;;;;;5043321;28;20464;-46
2021/04/10 04:10:00;;;;;;;10.47;7.70;;;11.20;85.40;;;;;;5040274;28;20533;-46
2021/04/10 04:12:26;;;;;;;7.70;6.47;;;11.20;85.40;;;;;;5042015;28;20458;-46
2021/04/10 04:14:52;;;;;;;9.37;6.57;;;11.20;85.40;;;;;;5042962;28;20979;-46
2021/04/10 04:17:19;;;;;;;13.87;6.70;;;11.30;85.30;;;;;;5056752;28;20860;-46
2021/04/10 04:19:45;;;;;;;7.63;6.30;;;11.30;85.00;;;;;;5039891;28;20546;-46
2021/04/10 04:22:11;;;;;;;8.07;6.70;;;11.20;85.10;;;;;;5035716;28;20455;-46
2021/04/10 04:24:37;;;;;;;7.50;5.70;;;11.30;84.90;;;;;;5041153;28;20823;-46
2021/04/10 04:27:04;;;;;;;6.83;5.83;;;11.20;84.90;;;;;;5040772;28;20499;-46
2021/04/10 04:29:31;;;;;;;11.23;7.00;;;11.20;84.80;;;;;;5046163;28;20538;-46
2021/04/10 04:31:57;;;;;;;8.00;6.67;;;11.20;84.80;;;;;;5040547;28;20468;-46
2021/04/10 04:34:24;;;;;;;7.40;6.60;;;11.20;84.80;;;;;;5042017;28;20450;-46
2021/04/10 04:36:50;;;;;;;9.33;7.10;;;11.20;84.70;;;;;;5042612;28;20490;-46
2021/04/10 04:39:16;;;;;;;8.30;6.60;;;11.20;84.80;;;;;;5039023;28;20459;-46
2021/04/10 04:41:42;;;;;;;9.17;7.60;;;11.20;84.70;;;;;;5042238;28;20462;-46
2021/04/10 04:44:08;;;;;;;11.13;8.43;;;11.20;84.70;;;;;;5040366;28;20466;-46
2021/04/10 04:46:35;;;;;;;7.63;6.93;;;11.20;84.80;;;;;;5042831;28;20464;-46
2021/04/10 04:49:01;;;;;;;8.73;6.70;;;11.10;85.00;;;;;;5059073;28;20471;-46
2021/04/10 04:51:27;;;;;;;10.67;7.90;;;11.10;85.00;;;;;;5041994;28;20454;-46
2021/04/10 04:53:54;;;;;;;8.20;7.23;;;11.10;85.10;;;;;;5038666;28;20975;-46
2021/04/10 04:56:21;;;;;;;8.53;7.60;;;11.10;85.10;;;;;;5043739;28;20517;-46
2021/04/10 04:58:47;;;;;;;11.10;7.60;;;11.20;85.10;;;;;;5041427;28;20456;-46
2021/04/10 05:01:15;;;;;;;9.47;7.13;;;11.10;85.10;;;;;;5037396;28;20522;-45
2021/04/10 05:03:42;;;;;;;12.47;8.30;;;11.10;85.30;;;;;;5037217;28;20517;-46
2021/04/10 05:06:08;;;;;;;8.70;7.80;;;11.10;85.30;;;;;;5040862;28;20451;-46
2021/04/10 05:08:34;;;;;;;9.87;8.87;;;11.10;85.40;;;;;;5039660;28;20455;-46
2021/04/10 05:11:01;;;;;;;9.97;8.20;;;11.10;85.40;;;;;;5041631;28;20458;-46
2021/04/10 05:13:27;;;;;;;13.20;10.00;;;11.10;85.50;;;;;;5044641;28;20546;-46
2021/04/10 05:15:56;;;;;;;11.53;9.70;;;11.10;85.50;;;;;;5040935;28;20459;-44
2021/04/10 05:18:22;;;;;;;12.63;9.13;;;11.00;85.50;;;;;;5042606;28;20843;-46
2021/04/10 05:20:49;;;;;;;12.20;9.67;;;11.00;85.60;;;;;;5044414;28;20997;-46
2021/04/10 05:23:23;;;;;;;12.80;9.70;;;11.00;85.60;;;;;;5037190;28;20897;-46
2021/04/10 05:25:50;;;;;;;14.83;8.90;;;11.00;85.70;;;;;;5040040;28;20464;-46
2021/04/10 05:28:19;;;;;;;16.73;11.17;;;11.00;85.70;;;;;;5042191;28;20550;-46
2021/04/10 05:30:46;;;;;;;12.93;10.43;;;11.00;85.80;;;;;;5042952;28;20817;-46
2021/04/10 05:33:13;;;;;;;11.67;10.47;;;11.00;85.80;;;;;;5041434;28;21033;-46
2021/04/10 05:35:39;;;;;;;14.90;8.87;;;11.00;85.80;;;;;;5042618;28;20459;-46
2021/04/10 05:38:06;;;;;;;16.03;10.00;;;11.00;85.80;;;;;;5040497;28;20493;-46
2021/04/10 05:40:32;;;;;;;13.30;10.73;;;11.00;85.90;;;;;;5038985;28;20815;-46
2021/04/10 05:42:58;;;;;;;13.00;9.63;;;11.00;86.00;;;;;;5040921;28;20455;-46
2021/04/10 05:45:25;;;;;;;16.57;9.80;;;11.00;86.00;;;;;;5043407;28;20936;-46
2021/04/10 05:47:51;;;;;;;12.73;10.83;;;11.00;86.00;;;;;;5040650;28;20462;-45
2021/04/10 05:50:17;;;;;;;15.80;12.13;;;11.00;86.00;;;;;;5039554;28;20469;-45
2021/04/10 05:52:43;;;;;;;12.40;9.77;;;11.00;86.00;;;;;;5041021;28;20468;-46
2021/04/10 05:55:10;;;;;;;10.57;9.47;;;11.00;86.00;;;;;;5039733;28;20466;-46
2021/04/10 05:57:37;;;;;;;13.67;10.70;;;11.00;86.10;;;;;;5044230;28;20497;-46
2021/04/10 06:00:04;;;;;;;13.20;10.60;;;11.00;86.20;;;;;;5041606;28;20615;-46
2021/04/10 06:02:31;;;;;;;16.40;11.17;;;11.00;86.20;;;;;;5045026;28;20469;-46
2021/04/10 06:04:58;;;;;;;10.70;9.60;;;11.00;86.30;;;;;;5044701;28;20462;-46
2021/04/10 06:07:24;;;;;;;13.03;10.33;;;11.10;86.30;;;;;;5043771;28;20536;-46
2021/04/10 06:09:50;;;;;;;14.60;9.33;;;11.10;86.40;;;;;;5043787;28;20461;-46
2021/04/10 06:12:17;;;;;;;14.10;10.67;;;11.10;86.50;;;;;;5041679;28;20457;-46
2021/04/10 06:14:43;;;;;;;15.33;11.00;;;11.10;86.70;;;;;;5046367;28;20557;-46
2021/04/10 06:17:10;;;;;;;12.57;11.20;;;11.10;86.70;;;;;;5040930;28;20501;-46
2021/04/10 06:19:36;;;;;;;16.20;11.57;;;11.20;86.80;;;;;;5041891;28;20512;-46
2021/04/10 06:22:03;;;;;;;13.10;10.27;;;11.20;86.80;;;;;;5043049;28;20458;-46
2021/04/10 06:24:30;;;;;;;11.80;10.70;;;11.20;86.90;;;;;;5028551;28;20451;-44
2021/04/10 06:26:56;;;;;;;15.93;12.17;;;11.30;86.90;;;;;;5046341;28;20872;-44
2021/04/10 06:29:22;;;;;;;12.43;9.53;;;11.30;87.00;;;;;;5038719;28;20547;-46
2021/04/10 06:31:48;;;;;;;16.20;9.77;;;11.40;87.00;;;;;;5045495;28;20537;-44
2021/04/10 06:34:15;;;;;;;11.53;9.20;;;11.40;87.00;;;;;;5043251;28;20513;-46
2021/04/10 06:36:41;;;;;;;10.27;8.87;;;11.40;87.00;;;;;;5046896;28;20816;-45
2021/04/10 06:39:07;;;;;;;9.07;8.07;;;11.40;87.00;;;;;;5041626;28;20458;-44
2021/04/10 06:41:37;;;;;;;9.23;8.30;;;11.50;87.20;;;;;;5043356;28;21888;-44
2021/04/10 06:44:03;;;;;;;9.40;7.80;;;11.50;87.10;;;;;;5042583;28;20992;-44
2021/04/10 06:46:34;;;;;;;12.47;8.50;;;11.50;87.10;;;;;;5047125;28;20465;-44
2021/04/10 06:49:05;;;;;;;13.20;8.87;;;11.50;87.10;;;;;;5043938;28;20803;-44
2021/04/10 06:51:31;;;;;;;13.80;9.90;;;11.50;87.10;;;;;;5043908;28;20528;-44
2021/04/10 06:53:58;;;;;;;10.97;8.83;;;11.50;87.10;;;;;;5039429;28;20645;-45
2021/04/10 06:56:26;;;;;;;10.50;9.50;;;11.60;87.20;;;;;;5042538;28;21026;-45
2021/04/10 06:59:39;;;;;;;12.07;9.97;;;11.60;87.20;;;;;;5043978;28;20457;-45
2021/04/10 07:02:14;;;;;;;11.70;8.23;;;11.60;87.20;;;;;;5007730;28;21047;-45
2021/04/10 07:04:44;;;;;;;14.20;9.13;;;11.60;87.20;;;;;;5008146;28;20962;-45
2021/04/10 07:07:11;;;;;;;9.73;8.80;;;11.60;87.00;;;;;;5029772;28;20546;-46
2021/04/10 07:09:39;;;;;;;9.20;8.30;;;11.60;87.00;;;;;;5045611;28;20469;-45
2021/04/10 07:12:07;;;;;;;17.33;8.40;;;11.60;87.10;;;;;;5040670;28;21039;-45
2021/04/10 07:14:34;;;;;;;9.20;8.27;;;11.60;87.20;;;;;;5045865;28;20466;-45
2021/04/10 07:17:01;;;;;;;13.40;9.27;;;11.60;87.30;;;;;;5041343;28;20621;-45
2021/04/10 07:19:29;;;;;;;12.47;9.63;;;11.70;87.30;;;;;;5041856;28;20461;-45
2021/04/10 07:22:12;;;;;;;9.60;7.90;;;11.70;87.20;;;;;;5044095;28;20461;-45
2021/04/10 07:24:47;;;;;;;10.03;8.97;;;11.70;87.20;;;;;;5058158;28;21014;-45
2021/04/10 07:27:16;;;;;;;8.20;7.40;;;11.80;87.00;;;;;;5042584;28;20542;-45
2021/04/10 07:29:47;;;;;;;5.50;4.90;;;11.80;86.90;;;;;;5043120;28;20446;-45
2021/04/10 07:32:26;;;;;;;4.60;4.20;;;11.80;84.40;;;;;;5042550;28;20447;-45
2021/04/10 07:34:53;;;;;;;4.30;3.80;;;11.70;83.40;;;;;;5043570;28;20466;-45
2021/04/10 07:37:49;;;;;;;6.70;5.43;;;11.60;83.40;;;;;;5037303;28;20487;-45
2021/04/10 07:40:25;;;;;;;6.13;4.03;;;11.50;84.00;;;;;;5039996;28;20466;-44
2021/04/10 07:42:52;;;;;;;3.70;3.40;;;11.40;84.00;;;;;;5043136;28;20466;-45
2021/04/10 07:45:22;;;;;;;4.53;3.40;;;11.30;83.30;;;;;;5042706;28;20443;-44
2021/04/10 07:47:49;;;;;;;5.30;4.10;;;11.20;83.50;;;;;;5039425;28;20456;-44
2021/04/10 07:50:27;;;;;;;5.67;2.73;;;11.20;83.70;;;;;;5043862;28;20815;-44
2021/04/10 07:52:54;;;;;;;9.43;3.60;;;11.10;83.80;;;;;;5044764;28;20460;-44
2021/04/10 07:55:54;;;;;;;5.53;3.93;;;11.00;84.00;;;;;;5044031;28;20462;-44
2021/04/10 07:58:30;;;;;;;6.80;3.23;;;11.00;84.20;;;;;;5020543;28;20574;-45
2021/04/10 08:01:01;;;;;;;4.53;3.20;;;11.00;83.90;;;;;;5042305;28;21006;-44
2021/04/10 08:03:57;;;;;;;3.13;2.93;;;10.90;83.60;;;;;;5042329;28;20825;-45
2021/04/10 08:06:23;;;;;;;6.13;3.07;;;10.90;82.80;;;;;;5038539;28;20482;-45
2021/04/10 08:08:54;;;;;;;3.90;2.87;;;10.80;83.10;;;;;;5044883;28;20451;-45
2021/04/10 08:11:33;;;;;;;3.87;3.47;;;10.80;83.70;;;;;;5042489;28;20474;-45
2021/04/10 08:14:05;;;;;;;3.30;3.00;;;10.80;83.00;;;;;;5042836;28;20468;-44
2021/04/10 08:16:37;;;;;;;3.83;3.40;;;10.70;83.10;;;;;;5038866;28;20474;-44
2021/04/10 08:19:03;;;;;;;4.73;2.90;;;10.70;83.20;;;;;;5039445;28;21500;-44
2021/04/10 08:21:29;;;;;;;3.20;2.90;;;10.70;83.50;;;;;;5042448;28;20462;-45
2021/04/10 08:23:56;;;;;;;4.83;3.07;;;10.60;83.00;;;;;;5044010;28;20459;-44
2021/04/10 08:26:24;;;;;;;2.77;2.57;;;10.60;82.50;;;;;;5043170;28;20852;-45
2021/04/10 08:28:50;;;;;;;4.13;3.17;;;10.60;82.10;;;;;;5044813;28;20941;-44
2021/04/10 08:31:17;;;;;;;6.13;2.20;;;10.60;82.70;;;;;;5042702;28;20526;-45
2021/04/10 08:33:44;;;;;;;4.63;2.83;;;10.50;81.90;;;;;;5037455;28;21003;-44
2021/04/10 08:36:12;;;;;;;5.13;2.93;;;10.60;81.60;;;;;;5039123;28;20460;-44
2021/04/10 08:38:42;;;;;;;3.10;2.73;;;10.50;81.90;;;;;;5040933;28;20483;-44
2021/04/10 08:41:10;;;;;;;2.90;2.50;;;10.50;81.20;;;;;;5039764;28;20468;-44
2021/04/10 08:43:44;;;;;;;4.70;2.90;;;10.50;80.90;;;;;;5036749;28;20467;-44
2021/04/10 08:46:11;;;;;;;5.50;2.50;;;10.50;80.50;;;;;;5037623;28;20458;-44
2021/04/10 08:48:38;;;;;;;2.97;2.53;;;10.50;80.80;;;;;;5043959;28;20458;-44
2021/04/10 08:51:08;;;;;;;6.27;2.57;;;10.50;80.10;;;;;;5047034;28;20969;-44
2021/04/10 08:53:39;;;;;;;2.83;2.30;;;10.50;81.40;;;;;;5036757;28;20477;-45
2021/04/10 08:56:12;;;;;;;2.73;2.13;;;10.50;81.10;;;;;;5041280;28;20478;-44
2021/04/10 08:58:42;;;;;;;4.10;2.50;;;10.60;80.60;;;;;;5044823;28;20490;-44
2021/04/10 09:01:16;;;;;;;2.83;2.53;;;10.60;80.10;;;;;;5042593;28;20499;-44
2021/04/10 09:03:45;;;;;;;2.90;2.63;;;10.60;80.20;;;;;;5039441;28;20464;-44
2021/04/10 09:06:13;;;;;;;2.33;2.13;;;10.60;79.70;;;;;;5040681;28;20464;-45
2021/04/10 09:08:39;;;;;;;3.97;2.40;;;10.60;80.30;;;;;;5045035;28;20462;-44
2021/04/10 09:11:08;;;;;;;5.70;2.37;;;10.70;80.30;;;;;;5042214;28;20453;-44
2021/04/10 09:13:51;;;;;;;5.43;2.57;;;10.70;80.20;;;;;;5041294;28;20458;-45
2021/04/10 09:16:25;;;;;;;3.37;3.07;;;10.80;80.10;;;;;;5042070;28;20506;-45
2021/04/10 09:19:00;;;;;;;3.07;2.87;;;10.80;80.10;;;;;;5043670;28;20486;-45
2021/04/10 09:21:41;;;;;;;3.70;2.13;;;10.80;79.70;;;;;;5041626;28;20805;-45
2021/04/10 09:24:30;;;;;;;2.40;2.23;;;10.80;80.10;;;;;;5041318;28;20562;-45
2021/04/10 09:27:03;;;;;;;3.87;2.80;;;10.80;80.60;;;;;;5043674;28;20552;-45
2021/04/10 09:30:00;;;;;;;3.43;2.33;;;10.80;79.60;;;;;;5046702;28;20459;-45
2021/04/10 09:32:34;;;;;;;3.80;3.03;;;10.80;80.10;;;;;;5057148;28;20772;-45
2021/04/10 09:35:03;;;;;;;6.47;2.27;;;10.80;80.40;;;;;;5044348;28;20530;-45
2021/04/10 09:37:29;;;;;;;5.50;3.23;;;10.90;81.80;;;;;;5041052;28;20496;-45
2021/04/10 09:40:04;;;;;;;6.00;2.73;;;10.90;81.80;;;;;;5040028;28;20447;-45
2021/04/10 09:45:07;;;;;;;4.67;2.77;;;10.90;80.70;;;;;;5040386;28;20450;-45
2021/04/10 09:47:54;;;;;;;2.80;2.60;;;10.90;81.90;;;;;;5043366;28;20492;-45
2021/04/10 09:50:25;;;;;;;4.40;2.60;;;10.90;81.20;;;;;;5038651;28;20467;-45
2021/04/10 09:53:08;;;;;;;4.60;2.70;;;10.90;80.70;;;;;;5045309;28;20447;-45
2021/04/10 09:55:36;;;;;;;3.80;2.60;;;10.90;80.20;;;;;;5039104;28;20460;-45
2021/04/10 09:58:14;;;;;;;4.43;3.00;;;10.90;81.00;;;;;;5042724;28;20482;-45
2021/04/10 10:00:43;;;;;;;8.07;3.10;;;10.90;81.20;;;;;;5043122;28;20832;-45
2021/04/10 10:03:14;;;;;;;6.60;4.87;;;10.90;81.70;;;;;;5039676;28;20495;-45
2021/04/10 10:06:00;;;;;;;4.73;2.90;;;11.00;81.40;;;;;;5039262;28;20473;-45
2021/04/10 10:08:31;;;;;;;3.60;2.83;;;11.00;81.20;;;;;;5044308;28;20493;-45
2021/04/10 10:11:07;;;;;;;3.03;2.73;;;11.10;81.50;;;;;;5043784;28;20450;-45
2021/04/10 10:13:36;;;;;;;3.40;2.83;;;11.20;81.60;;;;;;5043197;28;20443;-45
2021/04/10 10:16:04;;;;;;;4.90;2.60;;;11.20;79.80;;;;;;5050498;28;20450;-45
2021/04/10 10:18:35;;;;;;;3.37;3.07;;;11.20;80.50;;;;;;5040236;28;20526;-45
2021/04/10 10:21:04;;;;;;;3.70;2.60;;;11.30;80.40;;;;;;5035297;28;20839;-45
2021/04/10 10:23:33;;;;;;;3.47;3.20;;;11.40;80.10;;;;;;5043611;28;20970;-45
2021/04/10 10:26:13;;;;;;;4.77;3.30;;;11.40;79.70;;;;;;5042191;28;20932;-45
2021/04/10 10:28:42;;;;;;;3.97;3.03;;;11.50;79.30;;;;;;5043922;28;20462;-45
2021/04/10 10:31:15;;;;;;;2.80;2.60;;;11.50;79.30;;;;;;5039077;28;20489;-45
2021/04/10 10:33:42;;;;;;;4.07;3.40;;;11.60;79.30;;;;;;5036640;28;20895;-45
2021/04/10 10:36:10;;;;;;;4.73;2.90;;;11.60;79.30;;;;;;5036582;28;20463;-45
2021/04/10 10:38:39;;;;;;;4.63;3.27;;;11.60;79.40;;;;;;5037937;28;20480;-45
2021/04/10 10:41:08;;;;;;;3.90;2.80;;;11.70;78.70;;;;;;5040155;28;20902;-45
2021/04/10 10:43:35;;;;;;;4.93;3.90;;;11.70;78.10;;;;;;5043143;28;20439;-45
2021/04/10 10:46:07;;;;;;;4.50;2.43;;;11.60;76.90;;;;;;5042827;28;20451;-45
2021/04/10 10:48:36;;;;;;;4.00;3.10;;;11.60;77.00;;;;;;5048662;28;20971;-45
2021/04/10 10:51:06;;;;;;;2.77;2.40;;;11.60;77.20;;;;;;5042444;28;20966;-45
2021/04/10 10:53:47;;;;;;;3.87;3.20;;;11.60;77.40;;;;;;5043578;28;20463;-45
2021/04/10 10:56:19;;;;;;;7.60;2.97;;;11.60;78.30;;;;;;5039170;28;20486;-45
2021/04/10 10:58:47;;;;;;;4.43;2.87;;;11.60;78.40;;;;;;5039349;28;20887;-45
2021/04/10 11:01:16;;;;;;;7.27;3.10;;;11.70;77.80;;;;;;5041614;28;20487;-45
2021/04/10 11:03:55;;;;;;;3.50;2.97;;;11.70;77.30;;;;;;5041101;28;20833;-45
2021/04/10 11:06:28;;;;;;;8.03;3.43;;;11.70;77.60;;;;;;5041243;28;20461;-45
2021/04/10 11:08:59;;;;;;;4.40;2.90;;;11.70;78.00;;;;;;5043560;28;20959;-45
2021/04/10 11:11:31;;;;;;;4.50;3.97;;;11.70;78.10;;;;;;5044192;28;20454;-45
2021/04/10 11:13:58;;;;;;;4.93;3.50;;;11.60;78.20;;;;;;5041736;28;20553;-44
2021/04/10 11:16:25;;;;;;;4.30;3.30;;;11.60;78.70;;;;;;5040821;28;20475;-44
2021/04/10 11:18:57;;;;;;;5.93;3.97;;;11.60;78.80;;;;;;5043644;28;20484;-43
2021/04/10 11:21:28;;;;;;;6.90;3.77;;;11.60;79.20;;;;;;5040675;28;20459;-45
2021/04/10 11:24:01;;;;;;;3.50;3.20;;;11.70;79.10;;;;;;5044647;28;20459;-45
2021/04/10 11:26:36;;;;;;;6.70;3.53;;;11.80;78.70;;;;;;5037733;28;20465;-45
2021/04/10 11:29:18;;;;;;;4.33;3.03;;;11.80;78.50;;;;;;5039369;28;20462;-45
2021/04/10 11:32:03;;;;;;;3.33;2.70;;;11.90;77.20;;;;;;5039572;28;20466;-45
2021/04/10 11:34:36;;;;;;;5.50;3.27;;;11.90;76.40;;;;;;5040226;28;20507;-45
2021/04/10 11:37:04;;;;;;;4.80;3.80;;;11.90;77.10;;;;;;5042765;28;20914;-45
2021/04/10 11:39:46;;;;;;;6.80;2.90;;;11.90;77.30;;;;;;5042134;28;20451;-45
2021/04/10 11:42:43;;;;;;;3.13;2.70;;;11.90;77.20;;;;;;5044388;28;20537;-45
2021/04/10 11:45:23;;;;;;;2.80;2.60;;;12.00;76.00;;;;;;5043190;28;20448;-45
2021/04/10 11:48:24;;;;;;;5.10;2.83;;;12.00;75.60;;;;;;5046034;28;20542;-45
2021/04/10 11:50:58;;;;;;;3.00;2.50;;;12.00;76.10;;;;;;5032465;28;20959;-46
2021/04/10 11:53:35;;;;;;;4.97;2.90;;;12.00;75.70;;;;;;5048456;28;20450;-45
2021/04/10 11:56:22;;;;;;;3.27;2.97;;;12.10;75.00;;;;;;5040113;28;20503;-45
2021/04/10 11:59:00;;;;;;;3.33;2.90;;;12.10;75.10;;;;;;5042977;28;20489;-45
2021/04/10 12:01:27;;;;;;;4.00;2.60;;;12.00;74.90;;;;;;5041981;28;20444;-45
2021/04/10 12:03:59;;;;;;;4.27;2.97;;;12.00;75.60;;;;;;5057978;28;20465;-45
2021/04/10 12:06:29;;;;;;;3.17;2.77;;;12.00;75.50;;;;;;5048117;28;20450;-45
2021/04/10 12:09:01;;;;;;;3.20;2.80;;;12.00;75.60;;;;;;5042738;28;20486;-45
2021/04/10 12:11:27;;;;;;;4.50;2.33;;;12.00;75.60;;;;;;5041604;28;21014;-45
2021/04/10 12:13:53;;;;;;;2.80;2.60;;;12.10;75.00;;;;;;5040528;28;20500;-45
2021/04/10 12:16:19;;;;;;;4.20;2.10;;;12.10;74.30;;;;;;5043432;28;20480;-45
2021/04/10 12:18:46;;;;;;;5.10;2.90;;;12.10;74.10;;;;;;5041033;28;20889;-45
2021/04/10 12:21:16;;;;;;;3.93;2.53;;;12.00;74.10;;;;;;5040152;28;20463;-45
2021/04/10 12:23:42;;;;;;;5.73;2.40;;;12.00;74.00;;;;;;5041448;28;20463;-45
2021/04/10 12:26:08;;;;;;;5.53;3.53;;;12.00;74.40;;;;;;5058172;28;20446;-45
2021/04/10 12:28:35;;;;;;;4.13;2.70;;;12.00;75.20;;;;;;5044727;28;20458;-45
2021/04/10 12:31:03;;;;;;;3.33;2.70;;;12.00;75.40;;;;;;5042838;28;20467;-45
2021/04/10 12:33:29;;;;;;;7.07;2.83;;;12.00;75.00;;;;;;5040243;28;20541;-45
2021/04/10 12:35:57;;;;;;;2.67;2.47;;;12.00;74.60;;;;;;5042954;28;20459;-45
2021/04/10 12:38:24;;;;;;;3.40;2.50;;;12.00;75.00;;;;;;5041548;28;20881;-45
2021/04/10 12:40:51;;;;;;;2.90;2.47;;;12.00;74.90;;;;;;5044041;28;20469;-45
2021/04/10 12:43:17;;;;;;;3.67;2.60;;;12.10;74.90;;;;;;5046847;28;20447;-45
2021/04/10 12:45:43;;;;;;;8.30;2.60;;;12.10;75.00;;;;;;5043933;28;20462;-45
2021/04/10 12:48:09;;;;;;;5.60;2.70;;;12.10;75.10;;;;;;5043098;28;20453;-45
2021/04/10 12:50:36;;;;;;;3.17;2.87;;;12.20;75.20;;;;;;5040305;28;20461;-45
2021/04/10 12:53:02;;;;;;;4.07;2.90;;;12.20;75.10;;;;;;5041636;28;20492;-45
2021/04/10 12:55:29;;;;;;;3.80;2.90;;;12.20;74.80;;;;;;5046331;28;20537;-45
2021/04/10 12:57:56;;;;;;;4.63;2.27;;;12.30;74.40;;;;;;5043773;28;20904;-45
2021/04/10 13:00:22;;;;;;;5.23;2.70;;;12.30;74.10;;;;;;5038439;28;20463;-45
2021/04/10 13:02:49;;;;;;;4.87;2.93;;;12.30;74.10;;;;;;5041653;28;20565;-45